createdAt,value
2018-12-09T00:00:36.768Z,1.08
2018-12-09T00:03:05.264Z,0.95
2018-12-09T00:05:33.729Z,0.88
2018-12-09T00:08:02.173Z,0.83
2018-12-09T00:10:30.694Z,0.77
2018-12-09T00:12:59.630Z,0.76
2018-12-09T00:15:28.780Z,0.71
2018-12-09T00:17:57.288Z,0.70
2018-12-09T00:20:25.738Z,0.67
2018-12-09T00:26:21.877Z,0.76
2018-12-09T00:28:51.116Z,0.71
2018-12-09T00:31:19.536Z,0.65
2018-12-09T00:33:48.003Z,0.64
2018-12-09T00:36:16.519Z,0.59
2018-12-09T00:38:44.972Z,0.56
2018-12-09T00:41:13.397Z,0.54
2018-12-09T00:43:42.035Z,0.54
2018-12-09T00:46:10.458Z,0.53
2018-12-09T00:48:38.953Z,0.53
2018-12-09T00:51:07.462Z,0.50
2018-12-09T00:53:35.886Z,0.47
2018-12-09T00:56:04.286Z,0.48
2018-12-09T00:58:32.764Z,0.31
2018-12-09T01:01:01.213Z,0.19
2018-12-09T01:03:29.649Z,0.15
2018-12-09T01:05:58.520Z,0.00
2018-12-09T01:08:27.084Z,-0.05
2018-12-09T01:10:55.507Z,0.04
2018-12-09T01:13:23.978Z,0.01
2018-12-09T01:15:52.404Z,0.03
2018-12-09T01:18:20.839Z,0.03
2018-12-09T01:20:49.308Z,0.19
2018-12-09T01:23:17.760Z,0.19
2018-12-09T01:25:46.230Z,0.15
2018-12-09T01:28:14.774Z,0.11
2018-12-09T01:30:43.341Z,0.16
2018-12-09T01:33:11.855Z,0.15
2018-12-09T01:35:40.344Z,0.11
2018-12-09T01:38:08.854Z,0.11
2018-12-09T01:43:30.076Z,0.03
2018-12-09T01:45:59.088Z,0.03
2018-12-09T01:48:27.530Z,0.03
2018-12-09T01:54:22.836Z,0.12
2018-12-09T01:56:51.356Z,0.14
2018-12-09T01:59:19.827Z,0.18
2018-12-09T02:01:48.268Z,0.16
2018-12-09T02:04:17.144Z,0.16
2018-12-09T02:06:45.802Z,0.14
2018-12-09T02:09:14.266Z,0.15
2018-12-09T02:11:42.986Z,0.24
2018-12-09T02:14:11.453Z,0.19
2018-12-09T02:16:40.314Z,0.29
2018-12-09T02:19:16.186Z,0.38
2018-12-09T02:21:44.873Z,0.38
2018-12-09T02:24:14.389Z,0.38
2018-12-09T02:26:42.930Z,0.46
2018-12-09T02:29:11.356Z,0.69
2018-12-09T02:31:39.803Z,0.70
2018-12-09T02:34:08.336Z,0.68
2018-12-09T02:36:37.376Z,0.77
2018-12-09T02:39:06.232Z,0.77
2018-12-09T02:41:34.729Z,0.79
2018-12-09T02:44:03.272Z,0.89
2018-12-09T02:46:31.750Z,0.99
2018-12-09T02:49:00.248Z,1.02
2018-12-09T02:51:28.719Z,1.01
2018-12-09T02:53:58.069Z,1.06
2018-12-09T02:56:26.539Z,1.12
2018-12-09T02:58:54.957Z,1.14
2018-12-09T03:01:23.367Z,1.11
2018-12-09T03:03:51.998Z,1.13
2018-12-09T03:06:21.002Z,1.11
2018-12-09T03:08:49.377Z,1.11
2018-12-09T03:11:17.867Z,1.14
2018-12-09T03:13:48.100Z,1.09
2018-12-09T03:16:16.548Z,1.06
2018-12-09T03:18:45.681Z,0.98
2018-12-09T03:21:14.123Z,0.91
2018-12-09T03:23:42.572Z,0.87
2018-12-09T03:26:11.963Z,0.86
2018-12-09T03:28:40.485Z,0.88
2018-12-09T03:31:08.926Z,0.86
2018-12-09T03:33:37.409Z,0.83
2018-12-09T03:36:05.850Z,0.82
2018-12-09T03:38:34.295Z,0.78
2018-12-09T03:41:03.035Z,0.72
2018-12-09T03:43:32.300Z,0.66
2018-12-09T03:46:00.749Z,0.64
2018-12-09T03:48:29.225Z,0.62
2018-12-09T03:50:57.665Z,0.58
2018-12-09T03:53:26.133Z,0.56
2018-12-09T03:55:55.036Z,0.46
2018-12-09T03:58:23.485Z,0.44
2018-12-09T04:00:51.924Z,0.41
2018-12-09T04:03:20.408Z,0.39
2018-12-09T04:05:49.165Z,0.38
2018-12-09T04:08:17.602Z,0.40
2018-12-09T04:10:46.085Z,0.42
2018-12-09T04:13:14.526Z,0.43
2018-12-09T04:15:43.305Z,0.40
2018-12-09T04:18:12.109Z,0.42
2018-12-09T04:20:40.546Z,0.21
2018-12-09T04:23:09.026Z,0.25
2018-12-09T04:25:37.511Z,0.45
2018-12-09T04:28:05.932Z,0.47
2018-12-09T04:30:34.592Z,0.42
2018-12-09T04:33:03.048Z,0.36
2018-12-09T04:35:33.226Z,0.36
2018-12-09T04:38:01.635Z,0.43
2018-12-09T04:40:31.067Z,0.45
2018-12-09T04:42:59.965Z,0.33
2018-12-09T04:45:28.391Z,0.18
2018-12-09T04:47:56.886Z,0.20
2018-12-09T04:50:25.319Z,0.23
2018-12-09T04:52:53.734Z,0.19
2018-12-09T04:55:22.753Z,0.15
2018-12-09T04:57:51.572Z,0.16
2018-12-09T05:00:35.690Z,0.12
2018-12-09T05:03:06.073Z,0.23
2018-12-09T05:05:34.539Z,0.23
2018-12-09T05:08:03.068Z,0.05
2018-12-09T05:10:31.802Z,0.07
2018-12-09T05:13:00.248Z,0.10
2018-12-09T05:15:28.717Z,0.24
2018-12-09T05:17:57.476Z,0.35
2018-12-09T05:20:27.022Z,0.29
2018-12-09T05:22:55.504Z,0.18
2018-12-09T05:25:25.404Z,0.15
2018-12-09T05:27:54.324Z,0.18
2018-12-09T05:30:22.867Z,0.19
2018-12-09T05:32:51.512Z,0.22
2018-12-09T05:35:20.396Z,0.24
2018-12-09T05:37:48.849Z,0.25
2018-12-09T05:40:17.325Z,0.18
2018-12-09T05:42:45.766Z,0.18
2018-12-09T05:45:14.237Z,0.16
2018-12-09T05:47:42.976Z,0.14
2018-12-09T05:50:11.419Z,0.11
2018-12-09T05:52:39.931Z,0.05
2018-12-09T05:55:08.390Z,0.25
2018-12-09T05:57:36.873Z,0.17
2018-12-09T06:00:05.874Z,0.08
2018-12-09T06:02:49.428Z,0.02
2018-12-09T06:05:18.247Z,0.02
2018-12-09T06:07:46.765Z,0.06
2018-12-09T06:10:15.468Z,-0.02
2018-12-09T06:12:43.973Z,-0.01
2018-12-09T06:15:12.705Z,-0.01
2018-12-09T06:17:41.183Z,-0.08
2018-12-09T06:20:10.037Z,-0.11
2018-12-09T06:25:28.668Z,-0.69
2018-12-09T06:27:57.128Z,-0.13
2018-12-09T06:30:25.601Z,-0.10
2018-12-09T06:32:54.058Z,-0.11
2018-12-09T06:35:22.516Z,-0.14
2018-12-09T06:37:50.984Z,0.01
2018-12-09T06:40:20.558Z,-0.16
2018-12-09T06:42:49.342Z,-0.22
2018-12-09T06:45:17.824Z,-0.28
2018-12-09T06:47:46.325Z,-0.14
2018-12-09T06:50:15.680Z,-0.25
2018-12-09T06:52:44.580Z,-0.25
2018-12-09T06:55:13.408Z,-0.24
2018-12-09T06:57:41.874Z,-0.16
2018-12-09T07:00:10.359Z,-0.02
2018-12-09T07:02:38.872Z,0.11
2018-12-09T07:05:08.008Z,0.13
2018-12-09T07:07:36.497Z,0.21
2018-12-09T07:10:07.268Z,0.35
2018-12-09T07:12:35.729Z,0.46
2018-12-09T07:15:04.884Z,0.57
2018-12-09T07:17:33.300Z,0.72
2018-12-09T07:20:01.747Z,0.81
2018-12-09T07:22:30.214Z,0.90
2018-12-09T07:24:58.701Z,1.01
2018-12-09T07:27:27.418Z,1.05
2018-12-09T07:30:02.076Z,1.06
2018-12-09T07:32:26.961Z,1.23
2018-12-09T07:34:55.393Z,1.59
2018-12-09T07:37:23.863Z,1.63
2018-12-09T07:39:52.260Z,1.60
2018-12-09T07:42:20.740Z,1.49
2018-12-09T07:44:49.284Z,1.49
2018-12-09T07:47:19.017Z,1.51
2018-12-09T07:49:47.455Z,1.58
2018-12-09T07:52:15.961Z,1.55
2018-12-09T07:54:44.534Z,1.94
2018-12-09T07:57:13.064Z,2.68
2018-12-09T07:59:41.525Z,2.73
2018-12-09T08:02:09.928Z,2.82
2018-12-09T08:04:38.367Z,2.95
2018-12-09T08:07:06.820Z,3.19
2018-12-09T08:09:35.286Z,3.41
2018-12-09T08:12:03.735Z,4.08
2018-12-09T08:14:32.266Z,4.67
2018-12-09T08:17:00.712Z,5.38
2018-12-09T08:19:29.158Z,5.98
2018-12-09T08:21:57.675Z,6.11
2018-12-09T08:24:26.129Z,6.30
2018-12-09T08:26:56.480Z,6.37
2018-12-09T08:29:24.955Z,6.46
2018-12-09T08:31:53.375Z,6.63
2018-12-09T08:34:21.824Z,6.44
2018-12-09T08:36:50.301Z,6.28
2018-12-09T08:39:18.741Z,6.18
2018-12-09T08:41:47.184Z,6.24
2018-12-09T08:44:15.661Z,6.37
2018-12-09T08:46:44.105Z,6.62
2018-12-09T08:49:12.580Z,6.74
2018-12-09T08:51:41.105Z,6.87
2018-12-09T08:54:09.514Z,7.05
2018-12-09T08:56:37.953Z,6.62
2018-12-09T08:59:06.428Z,7.52
2018-12-09T09:01:34.865Z,7.69
2018-12-09T09:04:03.270Z,7.93
2018-12-09T09:06:31.761Z,7.60
2018-12-09T09:09:00.198Z,7.50
2018-12-09T09:11:28.628Z,7.48
2018-12-09T09:13:57.089Z,7.43
2018-12-09T09:16:25.562Z,7.18
2018-12-09T09:18:54.034Z,6.96
2018-12-09T09:21:22.506Z,6.81
2018-12-09T09:23:50.975Z,6.55
2018-12-09T09:26:19.509Z,6.29
2018-12-09T09:28:48.093Z,6.17
2018-12-09T09:31:16.590Z,5.88
2018-12-09T09:33:45.130Z,5.65
2018-12-09T09:36:13.637Z,5.69
2018-12-09T09:38:42.129Z,5.69
2018-12-09T09:41:10.585Z,6.01
2018-12-09T09:43:39.081Z,6.14
2018-12-09T09:46:07.516Z,6.18
2018-12-09T09:48:35.976Z,6.32
2018-12-09T09:51:05.140Z,6.29
2018-12-09T09:53:35.518Z,6.52
2018-12-09T09:56:04.105Z,6.56
2018-12-09T09:58:32.585Z,6.72
2018-12-09T10:01:01.025Z,6.25
2018-12-09T10:03:29.468Z,6.89
2018-12-09T10:05:57.956Z,6.81
2018-12-09T10:08:26.435Z,6.71
2018-12-09T10:10:54.868Z,6.63
2018-12-09T10:13:23.400Z,6.56
2018-12-09T10:15:51.890Z,6.48
2018-12-09T10:18:21.997Z,6.38
2018-12-09T10:20:50.502Z,6.35
2018-12-09T10:23:18.956Z,6.44
2018-12-09T10:25:47.462Z,6.55
2018-12-09T10:28:15.960Z,6.57
2018-12-09T10:30:44.411Z,6.63
2018-12-09T10:33:12.865Z,6.73
2018-12-09T10:35:41.366Z,6.83
2018-12-09T10:38:10.076Z,6.97
2018-12-09T10:40:39.154Z,7.12
2018-12-09T10:43:07.627Z,7.26
2018-12-09T10:45:36.066Z,7.39
2018-12-09T10:48:04.568Z,7.50
2018-12-09T10:50:33.211Z,7.48
2018-12-09T10:53:01.646Z,7.40
2018-12-09T10:55:30.715Z,7.35
2018-12-09T10:57:59.198Z,7.36
2018-12-09T11:00:33.373Z,7.23
2018-12-09T11:03:02.616Z,7.07
2018-12-09T11:05:31.125Z,6.85
2018-12-09T11:07:59.590Z,6.73
2018-12-09T11:10:28.717Z,6.62
2018-12-09T11:12:58.181Z,6.62
2018-12-09T11:15:26.640Z,6.59
2018-12-09T11:17:55.149Z,6.56
2018-12-09T11:20:23.639Z,6.53
2018-12-09T11:22:52.242Z,6.48
2018-12-09T11:25:21.026Z,6.51
2018-12-09T11:27:52.377Z,6.54
2018-12-09T11:30:23.437Z,6.57
2018-12-09T11:32:51.866Z,6.55
2018-12-09T11:35:20.365Z,6.52
2018-12-09T11:37:48.888Z,6.55
2018-12-09T11:40:17.432Z,6.58
2018-12-09T11:42:46.004Z,6.62
2018-12-09T11:45:15.360Z,6.75
2018-12-09T11:47:43.869Z,6.73
2018-12-09T11:50:12.606Z,6.55
2018-12-09T11:52:41.146Z,6.48
2018-12-09T11:55:10.250Z,6.48
2018-12-09T11:57:39.610Z,6.61
2018-12-09T12:00:11.461Z,6.69
2018-12-09T12:02:40.181Z,6.22
2018-12-09T12:05:08.688Z,6.48
2018-12-09T12:07:37.308Z,6.27
2018-12-09T12:10:06.825Z,6.17
2018-12-09T12:12:35.631Z,6.16
2018-12-09T12:15:05.392Z,6.22
2018-12-09T12:17:33.968Z,6.28
2018-12-09T12:20:02.501Z,6.28
2018-12-09T12:22:31.083Z,6.19
2018-12-09T12:24:59.738Z,6.13
2018-12-09T12:27:29.316Z,6.13
2018-12-09T12:29:59.386Z,6.18
2018-12-09T12:32:27.890Z,6.23
2018-12-09T12:34:56.547Z,6.24
2018-12-09T12:37:25.188Z,6.25
2018-12-09T12:39:54.147Z,6.32
2018-12-09T12:42:23.118Z,6.31
2018-12-09T12:44:52.289Z,6.30
2018-12-09T12:47:21.726Z,6.36
2018-12-09T12:49:50.537Z,6.25
2018-12-09T12:52:19.170Z,6.20
2018-12-09T12:54:47.970Z,6.13
2018-12-09T12:57:16.550Z,6.10
2018-12-09T12:59:45.178Z,6.16
2018-12-09T13:02:13.691Z,5.89
2018-12-09T13:04:42.779Z,6.05
2018-12-09T13:07:11.403Z,6.14
2018-12-09T13:09:40.271Z,6.23
2018-12-09T13:12:09.292Z,6.27
2018-12-09T13:14:42.297Z,6.16
2018-12-09T13:17:11.132Z,6.12
2018-12-09T13:19:39.708Z,6.10
2018-12-09T13:22:08.835Z,6.09
2018-12-09T13:24:37.425Z,6.11
2018-12-09T13:27:06.242Z,6.15
2018-12-09T13:29:35.721Z,6.19
2018-12-09T13:32:05.027Z,6.21
2018-12-09T13:34:34.086Z,6.19
2018-12-09T13:37:03.156Z,6.17
2018-12-09T13:39:31.717Z,6.15
2018-12-09T13:42:00.296Z,6.17
2018-12-09T13:44:28.795Z,6.10
2018-12-09T13:46:57.324Z,6.06
2018-12-09T13:49:25.895Z,6.03
2018-12-09T13:51:54.659Z,6.01
2018-12-09T13:54:23.417Z,6.01
2018-12-09T13:56:52.044Z,6.01
2018-12-09T13:59:21.429Z,6.02
2018-12-09T14:01:50.879Z,6.04
2018-12-09T14:04:21.148Z,6.04
2018-12-09T14:06:49.731Z,6.04
2018-12-09T14:09:19.186Z,6.02
2018-12-09T14:11:47.855Z,6.00
2018-12-09T14:14:17.467Z,5.97
2018-12-09T14:16:46.260Z,5.91
2018-12-09T14:19:14.886Z,5.91
2018-12-09T14:21:43.959Z,5.86
2018-12-09T14:24:12.878Z,5.84
2018-12-09T14:26:42.586Z,5.94
2018-12-09T14:29:11.273Z,5.87
2018-12-09T14:31:40.313Z,5.79
2018-12-09T14:34:08.891Z,5.71
2018-12-09T14:36:37.435Z,5.68
2018-12-09T14:39:08.158Z,5.64
2018-12-09T14:41:37.729Z,5.63
2018-12-09T14:44:07.567Z,5.56
2018-12-09T14:46:38.845Z,5.49
2018-12-09T14:49:07.345Z,5.41
2018-12-09T14:51:36.223Z,5.35
2018-12-09T14:54:05.835Z,5.35
2018-12-09T14:56:35.208Z,5.34
2018-12-09T14:59:03.765Z,5.30
2018-12-09T15:01:33.470Z,5.25
2018-12-09T15:04:02.086Z,5.23
2018-12-09T15:06:30.886Z,5.18
2018-12-09T15:08:59.471Z,5.17
2018-12-09T15:11:28.266Z,5.19
2018-12-09T15:13:57.115Z,5.16
2018-12-09T15:16:27.731Z,5.59
2018-12-09T15:18:56.393Z,5.70
2018-12-09T15:21:25.568Z,5.57
2018-12-09T15:23:54.200Z,5.51
2018-12-09T15:26:23.825Z,5.44
2018-12-09T15:28:52.805Z,5.35
2018-12-09T15:31:21.788Z,5.25
2018-12-09T15:33:50.578Z,5.27
2018-12-09T15:36:19.478Z,5.25
2018-12-09T15:38:48.819Z,5.20
2018-12-09T15:41:17.734Z,5.16
2018-12-09T15:43:46.998Z,4.93
2018-12-09T15:46:16.537Z,4.76
2018-12-09T15:48:49.471Z,4.63
2018-12-09T15:51:18.334Z,4.15
2018-12-09T15:53:47.978Z,4.44
2018-12-09T15:56:16.569Z,4.35
2018-12-09T15:58:45.135Z,4.28
2018-12-09T16:01:13.704Z,4.23
2018-12-09T16:03:42.359Z,4.21
2018-12-09T16:06:11.013Z,4.21
2018-12-09T16:08:39.638Z,4.28
2018-12-09T16:11:12.430Z,4.27
2018-12-09T16:13:41.273Z,4.22
2018-12-09T16:16:11.370Z,4.19
2018-12-09T16:18:40.027Z,4.05
2018-12-09T16:21:13.604Z,4.09
2018-12-09T16:23:42.371Z,4.18
2018-12-09T16:26:11.063Z,4.17
2018-12-09T16:28:39.751Z,4.02
2018-12-09T16:31:09.592Z,3.79
2018-12-09T16:33:38.363Z,3.86
2018-12-09T16:36:06.977Z,3.76
2018-12-09T16:38:36.820Z,3.69
2018-12-09T16:41:10.682Z,3.63
2018-12-09T16:43:39.612Z,3.62
2018-12-09T16:46:10.202Z,3.59
2018-12-09T16:48:40.880Z,3.56
2018-12-09T16:51:09.611Z,3.55
2018-12-09T16:53:40.406Z,3.36
2018-12-09T16:56:09.286Z,3.44
2018-12-09T16:58:38.067Z,3.42
2018-12-09T17:03:40.252Z,3.35
2018-12-09T17:06:09.854Z,3.31
2018-12-09T17:08:39.481Z,3.24
2018-12-09T17:11:08.900Z,3.21
2018-12-09T17:13:37.501Z,3.21
2018-12-09T17:16:06.094Z,3.21
2018-12-09T17:18:38.345Z,3.20
2018-12-09T17:21:08.944Z,3.22
2018-12-09T17:23:37.765Z,3.22
2018-12-09T17:26:07.757Z,3.17
2018-12-09T17:28:37.530Z,3.00
2018-12-09T17:31:06.135Z,2.90
2018-12-09T17:33:39.612Z,2.92
2018-12-09T17:36:08.251Z,2.98
2018-12-09T17:38:38.456Z,3.02
2018-12-09T17:41:07.636Z,3.11
2018-12-09T17:43:36.353Z,3.15
2018-12-09T17:46:06.265Z,3.30
2018-12-09T17:48:35.940Z,3.35
2018-12-09T17:51:06.672Z,3.55
2018-12-09T17:53:37.525Z,3.57
2018-12-09T17:56:07.597Z,3.40
2018-12-09T17:58:39.373Z,3.37
2018-12-09T18:01:10.221Z,3.32
2018-12-09T18:03:38.845Z,3.60
2018-12-09T18:06:08.338Z,3.39
2018-12-09T18:08:38.377Z,3.21
2018-12-09T18:11:10.005Z,3.11
2018-12-09T18:13:38.866Z,2.97
2018-12-09T18:16:08.806Z,2.88
2018-12-09T18:18:37.527Z,2.79
2018-12-09T18:21:08.121Z,2.76
2018-12-09T18:23:36.871Z,2.68
2018-12-09T18:26:07.131Z,2.64
2018-12-09T18:28:36.150Z,2.63
2018-12-09T18:31:05.917Z,2.53
2018-12-09T18:33:36.180Z,2.49
2018-12-09T18:36:04.861Z,2.47
2018-12-09T18:41:13.615Z,2.39
2018-12-09T18:43:42.480Z,2.38
2018-12-09T18:46:12.294Z,2.20
2018-12-09T18:48:41.007Z,2.12
2018-12-09T18:51:12.547Z,2.09
2018-12-09T18:53:46.018Z,2.11
2018-12-09T18:56:15.145Z,2.12
2018-12-09T18:58:45.557Z,2.10
2018-12-09T19:01:16.288Z,2.09
2018-12-09T19:06:18.865Z,2.61
2018-12-09T19:08:48.553Z,0.52
2018-12-09T19:13:51.881Z,2.52
2018-12-09T19:16:20.916Z,2.42
2018-12-09T19:18:50.081Z,2.39
2018-12-09T19:21:23.122Z,2.32
2018-12-09T19:26:26.846Z,2.18
2018-12-09T19:28:55.527Z,2.70
2018-12-09T19:31:24.889Z,2.86
2018-12-09T19:33:54.260Z,2.96
2018-12-09T19:36:24.231Z,2.90
2018-12-09T19:38:53.802Z,2.68
2018-12-09T19:41:23.207Z,3.07
2018-12-09T19:43:53.027Z,3.08
2018-12-09T19:46:21.875Z,2.89
2018-12-09T19:53:58.651Z,2.52
2018-12-09T19:56:27.697Z,2.49
2018-12-09T19:58:59.593Z,2.45
2018-12-09T20:01:28.287Z,2.39
2018-12-09T20:03:57.293Z,2.27
2018-12-09T20:09:05.016Z,2.14
2018-12-09T20:11:34.005Z,2.16
2018-12-09T20:14:04.217Z,2.12
2018-12-09T20:16:37.150Z,2.08
2018-12-09T20:19:06.427Z,2.03
2018-12-09T20:21:35.437Z,1.96
2018-12-09T20:24:06.179Z,1.90
2018-12-09T20:26:35.031Z,1.83
2018-12-09T20:29:06.131Z,1.79
2018-12-09T20:31:34.716Z,1.74
2018-12-09T20:34:07.829Z,1.65
2018-12-09T20:36:37.535Z,1.65
2018-12-09T20:39:07.821Z,1.72
2018-12-09T20:41:36.817Z,1.70
2018-12-09T20:44:06.612Z,1.72
2018-12-09T20:49:11.431Z,2.36
2018-12-09T20:51:42.598Z,2.76
2018-12-09T20:54:14.886Z,2.46
2018-12-09T20:56:44.447Z,2.26
2018-12-09T21:01:46.416Z,1.85
2018-12-09T21:04:15.069Z,1.77
2018-12-09T21:06:44.675Z,1.68
2018-12-09T21:09:13.309Z,1.65
2018-12-09T21:11:43.007Z,1.64
2018-12-09T21:14:11.864Z,1.65
2018-12-09T21:16:41.307Z,1.68
2018-12-09T21:19:10.025Z,1.66
2018-12-09T21:21:38.676Z,1.60
2018-12-09T21:24:07.662Z,1.55
2018-12-09T21:26:36.197Z,1.47
2018-12-09T21:29:04.773Z,1.43
2018-12-09T21:31:33.263Z,1.46
2018-12-09T21:34:01.847Z,1.45
2018-12-09T21:36:30.380Z,1.47
2018-12-09T21:38:59.328Z,1.46
2018-12-09T21:41:27.866Z,1.43
2018-12-09T21:43:56.740Z,1.43
2018-12-09T21:46:25.382Z,1.38
2018-12-09T21:48:54.160Z,1.33
2018-12-09T21:51:22.695Z,1.38
2018-12-09T21:53:51.295Z,1.38
2018-12-09T21:56:19.732Z,0.41
2018-12-09T21:58:48.227Z,1.69
2018-12-09T22:01:16.809Z,1.67
2018-12-09T22:03:45.335Z,1.50
2018-12-09T22:06:13.864Z,1.44
2018-12-09T22:08:42.393Z,1.33
2018-12-09T22:11:10.880Z,1.29
2018-12-09T22:13:39.350Z,1.27
2018-12-09T22:16:07.833Z,1.24
2018-12-09T22:18:36.701Z,1.23
2018-12-09T22:21:05.214Z,1.21
2018-12-09T22:23:33.675Z,1.25
2018-12-09T22:26:02.162Z,1.33
2018-12-09T22:28:30.590Z,1.31
2018-12-09T22:31:00.784Z,1.27
2018-12-09T22:33:29.253Z,1.25
2018-12-09T22:35:57.637Z,1.21
2018-12-09T22:38:26.957Z,1.16
2018-12-09T22:40:55.627Z,1.16
2018-12-09T22:43:24.037Z,1.09
2018-12-09T22:45:53.545Z,1.04
2018-12-09T22:48:21.991Z,1.10
2018-12-09T22:50:50.507Z,1.41
2018-12-09T22:53:18.972Z,1.41
2018-12-09T22:55:47.394Z,1.36
2018-12-09T22:58:16.172Z,1.35
2018-12-09T23:00:48.017Z,1.18
2018-12-09T23:03:16.471Z,1.26
2018-12-09T23:05:44.900Z,1.19
2018-12-09T23:08:13.391Z,1.27
2018-12-09T23:10:41.806Z,1.48
2018-12-09T23:13:10.311Z,1.38
2018-12-09T23:15:38.799Z,1.28
2018-12-09T23:18:07.505Z,1.16
2018-12-09T23:20:35.917Z,1.12
2018-12-09T23:23:04.385Z,1.10
2018-12-09T23:25:32.842Z,1.07
2018-12-09T23:28:01.279Z,1.04
2018-12-09T23:30:29.775Z,1.00
2018-12-09T23:32:58.214Z,1.05
2018-12-09T23:35:26.642Z,1.08
2018-12-09T23:37:55.082Z,1.06
2018-12-09T23:40:23.508Z,1.01
2018-12-09T23:42:51.937Z,1.04
2018-12-09T23:45:20.449Z,1.02
2018-12-09T23:47:48.851Z,0.98
2018-12-09T23:50:17.279Z,0.94
2018-12-09T23:52:45.747Z,0.93
2018-12-09T23:55:14.203Z,0.91
2018-12-09T23:57:42.634Z,0.85
